Terminal Aerodrome Forecast
Issued by NWS

Home | Current Version | Previous Version | Text Only | Print | Product List | Glossary On
Versions: 1 2 3 4 5 6 7 8 9 10 11 12 13 14 15 16 17 18 19 20 21 22 23 24 25 26 27 28 29 30 31 32 33 34 35 36
000
FTUS43 KGLD 281947 AAA
TAFMCK
TAF AMD
KMCK 281947Z 2820/2918 11007KT P6SM VCTS FEW015 BKN030CB OVC110
      TEMPO 2820/2822 2SM TSRA BKN015CB
     FM290300 06008KT P6SM SHRA VCTS BKN090CB
     FM290600 02006KT P6SM BKN025 PROB30 2908/2909 5SM -TSRA BR
      OVC025CB
     FM291500 04006KT P6SM SCT025
     FM291700 07007KT P6SM SCT035=

USA.gov is the U.S. government's official web portal to all federal, state and local government web resources and services.